Accueil
METAR-TAF:

METAR-TAF

Aéroports :

Laupheim, Allemagne

latitude: 48-13N, longitude: 009-55E, altitude: 538 m

Observation

Le bulletin a été fait il y a 50 minutes, à 12:20 UTC
Vent 10 kt de est
Température 20°C
Humidité 60%
Pression 1025 hPa
Visibilité 10 km ou plus
Nuages épars à une hauteur de 3000 ft

METAR: ETHL 221220Z 10010KT 9999 SCT030 20/12 Q1025 BLU+BLU+ TEMPO BLU

Heure: 15:10 (13:10 UTC)

Prévision

Le bulletin a été fait il y a 2 heures et 55 minutes, à 10:15 UTC
Prévision valable du 22 à 11 UTC au 22 à 20 UTC
Vent 10 kt de est/nord-est
Visibilité 10 km ou plus
Nuages épars à une hauteur de 3000 ft

TAF: ETHL 221015Z 2211/2220 07010KT 9999 NSW SCT030

Observations et prévisions météorologiques de plus de 4000 aéroports (messages METAR et TAF).

Les stations disponibles sont représentées par des disques jaunes et rouges sur la carte.

Passer la souris dessus pour voir le nom de la station.

Cliquer dessus pour voir les observations et prévisions météorologiques.

Pour changer de carte: cliquez sur les boutons verts avec une croix noire pour zoomer, sur le bouton vert avec un tiret pour effectuer un zoom arrière, ou sur les flèches vertes pour les cartes adjacentes.


METAR-TAF: